createdAt,value
2019-03-23T00:02:18.599Z,98426.36
2019-03-23T00:04:49.448Z,98427.79
2019-03-23T00:07:20.502Z,98425.98
2019-03-23T00:09:51.342Z,98425.98
2019-03-23T00:12:22.214Z,98421.07
2019-03-23T00:14:52.987Z,98421.07
2019-03-23T00:17:24.822Z,98412.05
2019-03-23T00:19:56.726Z,98410.24
2019-03-23T00:22:27.477Z,98408.02
2019-03-23T00:24:58.279Z,98404.54
2019-03-23T00:27:29.088Z,98405.83
2019-03-23T00:30:00.003Z,98400.05
2019-03-23T00:32:30.846Z,98403.15
2019-03-23T00:35:02.801Z,98393.33
2019-03-23T00:37:33.740Z,98389.77
2019-03-23T00:40:10.147Z,98392.45
2019-03-23T00:42:41.037Z,98384.39
2019-03-23T00:45:11.804Z,98389.77
2019-03-23T00:47:42.691Z,98380.91
2019-03-23T00:50:14.978Z,98376.42
2019-03-23T00:52:45.748Z,98376.33
2019-03-23T00:55:16.570Z,98377.21
2019-03-23T00:57:47.334Z,98370.58
2019-03-23T01:00:18.427Z,98368.77
2019-03-23T01:02:49.198Z,98362.11
2019-03-23T01:05:20.135Z,98367.09
2019-03-23T01:07:50.927Z,98360.22
2019-03-23T01:10:21.762Z,98357.23
2019-03-23T01:12:52.656Z,98360.84
2019-03-23T01:15:23.414Z,98355.80
2019-03-23T01:17:54.204Z,98353.13
2019-03-23T01:20:24.995Z,98350.90
2019-03-23T01:22:55.779Z,98347.83
2019-03-23T01:25:26.771Z,98352.70
2019-03-23T01:27:57.514Z,98343.30
2019-03-23T01:30:28.331Z,98345.61
2019-03-23T01:32:59.143Z,98342.46
2019-03-23T01:35:29.911Z,98348.30
2019-03-23T01:38:00.704Z,98342.51
2019-03-23T01:40:36.320Z,98338.48
2019-03-23T01:43:06.833Z,98337.22
2019-03-23T01:45:37.626Z,98338.48
2019-03-23T01:48:08.769Z,98340.32
2019-03-23T01:50:39.572Z,98342.51
2019-03-23T01:53:10.427Z,98342.13
2019-03-23T01:55:41.280Z,98344.35
2019-03-23T01:58:12.148Z,98343.01
2019-03-23T02:00:42.939Z,98342.13
2019-03-23T02:03:13.808Z,98342.59
2019-03-23T02:05:44.629Z,98342.21
2019-03-23T02:08:15.656Z,98344.40
2019-03-23T02:10:47.319Z,98339.03
2019-03-23T02:13:18.146Z,98343.05
2019-03-23T02:15:49.325Z,98338.09
2019-03-23T02:18:20.166Z,98343.94
2019-03-23T02:20:50.914Z,98338.98
2019-03-23T02:23:21.753Z,98339.03
2019-03-23T02:25:52.611Z,98335.88
2019-03-23T02:28:23.466Z,98337.30
2019-03-23T02:30:54.294Z,98334.62
2019-03-23T02:33:25.081Z,98336.84
2019-03-23T02:35:55.832Z,98336.84
2019-03-23T02:38:26.634Z,98333.28
2019-03-23T02:40:57.485Z,98328.78
2019-03-23T02:43:28.304Z,98337.39
2019-03-23T02:45:59.104Z,98330.17
2019-03-23T02:48:29.905Z,98331.14
2019-03-23T02:51:01.733Z,98326.64
2019-03-23T02:53:32.576Z,98324.89
2019-03-23T02:56:03.355Z,98326.64
2019-03-23T02:58:34.209Z,98332.61
2019-03-23T03:01:05.129Z,98326.40
2019-03-23T03:03:37.347Z,98334.59
2019-03-23T03:06:08.139Z,98327.73
2019-03-23T03:08:39.330Z,98328.12
2019-03-23T03:11:11.257Z,98329.92
2019-03-23T03:13:42.141Z,98329.55
2019-03-23T03:16:13.027Z,98328.20
2019-03-23T03:18:43.856Z,98329.46
2019-03-23T03:21:14.689Z,98330.80
2019-03-23T03:23:45.749Z,98327.66
2019-03-23T03:26:16.572Z,98326.86
2019-03-23T03:28:47.359Z,98326.40
2019-03-23T03:31:20.002Z,98322.83
2019-03-23T03:33:50.801Z,98321.48
2019-03-23T03:36:21.548Z,98317.55
2019-03-23T03:38:52.469Z,98323.77
2019-03-23T03:41:23.283Z,98324.30
2019-03-23T03:43:54.092Z,98318.09
2019-03-23T03:46:24.863Z,98316.25
2019-03-23T03:48:55.951Z,98314.45
2019-03-23T03:51:26.710Z,98311.84
2019-03-23T03:53:57.480Z,98309.95
2019-03-23T03:56:28.374Z,98309.95
2019-03-23T03:58:59.184Z,98310.33
2019-03-23T04:01:30.072Z,98305.92
2019-03-23T04:04:00.902Z,98301.98
2019-03-23T04:06:31.671Z,98304.17
2019-03-23T04:09:02.558Z,98299.76
2019-03-23T04:11:33.371Z,98293.13
2019-03-23T04:14:04.163Z,98287.81
2019-03-23T04:16:34.901Z,98290.03
2019-03-23T04:19:05.669Z,98292.25
2019-03-23T04:21:36.542Z,98289.95
2019-03-23T04:24:07.428Z,98290.03
2019-03-23T04:26:39.467Z,98291.84
2019-03-23T04:29:10.422Z,98291.78
2019-03-23T04:31:41.301Z,98284.74
2019-03-23T04:34:14.023Z,98283.41
2019-03-23T04:36:44.563Z,98280.17
2019-03-23T04:39:15.323Z,98278.36
2019-03-23T04:41:46.138Z,98279.20
2019-03-23T04:44:16.951Z,98279.75
2019-03-23T04:46:47.876Z,98276.60
2019-03-23T04:49:20.642Z,98279.20
2019-03-23T04:51:51.473Z,98280.30
2019-03-23T04:54:22.220Z,98277.29
2019-03-23T04:56:52.991Z,98274.19
2019-03-23T04:59:21.745Z,98282.24
2019-03-23T05:01:52.618Z,98283.12
2019-03-23T05:04:23.406Z,98283.04
2019-03-23T05:06:54.199Z,98283.92
2019-03-23T05:09:25.047Z,98291.89
2019-03-23T05:11:55.880Z,98289.95
2019-03-23T05:14:26.638Z,98278.87
2019-03-23T05:16:57.493Z,98282.48
2019-03-23T05:19:28.232Z,98278.96
2019-03-23T05:21:59.068Z,98278.55
2019-03-23T05:24:29.807Z,98273.51
2019-03-23T05:27:00.645Z,98274.44
2019-03-23T05:29:31.464Z,98273.09
2019-03-23T05:32:02.271Z,98270.03
2019-03-23T05:34:34.500Z,98274.05
2019-03-23T05:37:05.886Z,98275.86
2019-03-23T05:39:36.672Z,98276.33
2019-03-23T05:42:07.471Z,98278.46
2019-03-23T05:44:38.307Z,98280.30
2019-03-23T05:47:09.118Z,98277.13
2019-03-23T05:49:39.905Z,98278.08
2019-03-23T05:52:11.818Z,98283.04
2019-03-23T05:54:42.572Z,98283.12
2019-03-23T05:57:13.363Z,98289.45
2019-03-23T05:59:44.153Z,98291.17
2019-03-23T06:02:14.925Z,98292.84
2019-03-23T06:04:45.670Z,98290.16
2019-03-23T06:07:16.485Z,98293.31
2019-03-23T06:09:47.250Z,98298.60
2019-03-23T06:12:18.026Z,98299.48
2019-03-23T06:14:48.848Z,98310.69
2019-03-23T06:17:19.617Z,98308.49
2019-03-23T06:19:50.426Z,98313.37
2019-03-23T06:22:21.191Z,98316.05
2019-03-23T06:24:51.997Z,98314.66
2019-03-23T06:27:23.880Z,98315.13
2019-03-23T06:29:54.641Z,98314.70
2019-03-23T06:32:25.523Z,98314.33
2019-03-23T06:34:56.273Z,98319.53
2019-03-23T06:37:27.075Z,98319.15
2019-03-23T06:39:57.905Z,98323.09
2019-03-23T06:42:28.725Z,98323.09
2019-03-23T06:44:59.608Z,98325.70
2019-03-23T06:47:30.359Z,98317.73
2019-03-23T06:50:01.119Z,98310.00
2019-03-23T06:52:31.924Z,98307.31
2019-03-23T06:55:02.960Z,98315.63
2019-03-23T06:57:33.771Z,98315.75
2019-03-23T07:00:05.652Z,98317.42
2019-03-23T07:02:36.431Z,98315.16
2019-03-23T07:05:07.996Z,98312.85
2019-03-23T07:07:38.803Z,98308.91
2019-03-23T07:10:10.072Z,98319.10
2019-03-23T07:12:40.858Z,98316.80
2019-03-23T07:15:19.882Z,98318.01
2019-03-23T07:17:44.225Z,98319.44
2019-03-23T07:20:15.070Z,98316.34
2019-03-23T07:22:45.867Z,98314.99
2019-03-23T07:25:16.660Z,98317.59
2019-03-23T07:27:47.423Z,98315.33
2019-03-23T07:30:18.242Z,98310.28
2019-03-23T07:32:49.003Z,98311.67
2019-03-23T07:35:20.810Z,98308.53
2019-03-23T07:37:51.627Z,98310.42
2019-03-23T07:40:22.349Z,98313.56
2019-03-23T07:42:55.123Z,98302.86
2019-03-23T07:45:25.842Z,98305.43
2019-03-23T07:47:56.543Z,98305.30
2019-03-23T07:50:28.400Z,98302.19
2019-03-23T07:52:59.106Z,98303.89
2019-03-23T07:55:29.839Z,98298.39
2019-03-23T07:58:00.535Z,98295.58
2019-03-23T08:00:31.771Z,98297.55
2019-03-23T08:03:02.540Z,98297.01
2019-03-23T08:05:36.658Z,98298.14
2019-03-23T08:08:07.366Z,98305.73
2019-03-23T08:10:38.185Z,98297.42
2019-03-23T08:13:08.926Z,98297.17
2019-03-23T08:15:39.646Z,98294.02
2019-03-23T08:18:10.452Z,98294.82
2019-03-23T08:20:41.169Z,98285.80
2019-03-23T08:23:11.939Z,98290.16
2019-03-23T08:25:42.696Z,98285.05
2019-03-23T08:28:13.496Z,98280.61
2019-03-23T08:30:44.341Z,98285.30
2019-03-23T08:33:15.397Z,98286.51
2019-03-23T08:35:46.214Z,98285.73
2019-03-23T08:38:17.055Z,98279.27
2019-03-23T08:40:47.913Z,98278.31
2019-03-23T08:43:18.778Z,98275.45
2019-03-23T08:45:49.667Z,98279.34
2019-03-23T08:48:20.440Z,98274.61
2019-03-23T08:50:51.358Z,98267.84
2019-03-23T08:53:22.222Z,98268.33
2019-03-23T08:55:53.093Z,98259.70
2019-03-23T08:58:31.340Z,98261.98
2019-03-23T09:01:02.213Z,98258.81
2019-03-23T09:03:33.063Z,98258.34
2019-03-23T09:06:03.905Z,98252.27
2019-03-23T09:08:34.816Z,98243.38
2019-03-23T09:11:05.885Z,98245.17
2019-03-23T09:13:40.836Z,98241.61
2019-03-23T09:16:09.336Z,98243.13
2019-03-23T09:18:40.110Z,98239.84
2019-03-23T09:21:12.882Z,98237.62
2019-03-23T09:23:43.543Z,98232.17
2019-03-23T09:26:14.467Z,98233.42
2019-03-23T09:28:45.297Z,98232.03
2019-03-23T09:31:16.218Z,98232.58
2019-03-23T09:33:47.012Z,98228.94
2019-03-23T09:36:17.843Z,98224.83
2019-03-23T09:38:48.740Z,98220.80
2019-03-23T09:41:20.819Z,98222.94
2019-03-23T09:43:51.628Z,98220.25
2019-03-23T09:46:22.439Z,98217.56
2019-03-23T09:48:53.280Z,98216.64
2019-03-23T09:51:24.114Z,98212.20
2019-03-23T09:53:55.772Z,98208.13
2019-03-23T09:56:26.579Z,98208.83
2019-03-23T09:58:57.893Z,98206.78
2019-03-23T10:01:28.650Z,98206.70
2019-03-23T10:03:59.447Z,98199.44
2019-03-23T10:06:30.197Z,98199.98
2019-03-23T10:09:05.812Z,98197.77
2019-03-23T10:11:36.694Z,98198.78
2019-03-23T10:14:11.000Z,98195.25
2019-03-23T10:16:41.832Z,98194.61
2019-03-23T10:19:12.605Z,98197.30
2019-03-23T10:21:43.497Z,98196.33
2019-03-23T10:24:14.278Z,98193.42
2019-03-23T10:26:45.086Z,98191.16
2019-03-23T10:29:15.858Z,98189.73
2019-03-23T10:31:46.719Z,98186.17
2019-03-23T10:34:17.536Z,98188.06
2019-03-23T10:36:48.418Z,98190.11
2019-03-23T10:39:19.237Z,98186.80
2019-03-23T10:41:49.988Z,98183.23
2019-03-23T10:44:20.726Z,98172.91
2019-03-23T10:46:51.498Z,98176.85
2019-03-23T10:49:22.262Z,98175.42
2019-03-23T10:51:53.031Z,98176.30
2019-03-23T10:54:23.785Z,98175.52
2019-03-23T10:56:54.564Z,98171.48
2019-03-23T10:59:28.027Z,98167.05
2019-03-23T11:01:58.875Z,98161.21
2019-03-23T11:04:29.727Z,98165.56
2019-03-23T11:07:01.813Z,98161.63
2019-03-23T11:09:32.682Z,98157.09
2019-03-23T11:12:03.458Z,98153.70
2019-03-23T11:14:34.207Z,98146.20
2019-03-23T11:17:05.065Z,98146.12
2019-03-23T11:19:35.816Z,98145.74
2019-03-23T11:22:06.753Z,98148.25
2019-03-23T11:24:38.016Z,98138.48
2019-03-23T11:27:08.799Z,98136.96
2019-03-23T11:29:39.664Z,98131.59
2019-03-23T11:32:10.523Z,98125.84
2019-03-23T11:34:41.343Z,98125.37
2019-03-23T11:37:12.234Z,98121.81
2019-03-23T11:39:43.033Z,98125.76
2019-03-23T11:42:13.859Z,98120.85
2019-03-23T11:44:44.643Z,98121.64
2019-03-23T11:47:15.458Z,98113.03
2019-03-23T11:49:46.273Z,98111.45
2019-03-23T11:52:17.078Z,98103.34
2019-03-23T11:54:48.851Z,98097.66
2019-03-23T11:57:19.691Z,98092.66
2019-03-23T11:59:50.440Z,98088.08
2019-03-23T12:02:21.434Z,98088.17
2019-03-23T12:04:52.181Z,98094.73
2019-03-23T12:07:22.971Z,98088.49
2019-03-23T12:09:55.953Z,98083.59
2019-03-23T12:12:27.325Z,98080.53
2019-03-23T12:14:58.098Z,98076.64
2019-03-23T12:17:28.921Z,98072.06
2019-03-23T12:19:59.659Z,98075.21
2019-03-23T12:22:30.540Z,98075.85
2019-03-23T12:25:01.287Z,98070.57
2019-03-23T12:27:32.285Z,98067.19
2019-03-23T12:30:07.107Z,98068.36
2019-03-23T12:32:36.897Z,98056.59
2019-03-23T12:35:08.329Z,98054.84
2019-03-23T12:37:39.140Z,98049.47
2019-03-23T12:40:10.808Z,98048.77
2019-03-23T12:42:41.654Z,98044.66
2019-03-23T12:45:12.480Z,98035.59
2019-03-23T12:47:43.226Z,98036.46
2019-03-23T12:50:14.225Z,98034.16
2019-03-23T12:52:46.241Z,98026.97
2019-03-23T12:55:17.023Z,98030.53
2019-03-23T12:57:47.806Z,98029.42
2019-03-23T13:00:18.684Z,98024.98
2019-03-23T13:02:49.475Z,98024.84
2019-03-23T13:05:20.276Z,98020.41
2019-03-23T13:07:51.212Z,98023.09
2019-03-23T13:10:21.992Z,98016.09
2019-03-23T13:12:52.910Z,98019.24
2019-03-23T13:15:23.606Z,98008.50
2019-03-23T13:17:54.374Z,98006.60
2019-03-23T13:20:25.272Z,98000.27
2019-03-23T13:22:56.174Z,97996.74
2019-03-23T13:25:26.957Z,97996.89
2019-03-23T13:27:58.043Z,97987.90
2019-03-23T13:30:28.795Z,97993.73
2019-03-23T13:33:01.131Z,97989.80
2019-03-23T13:35:31.908Z,97985.77
2019-03-23T13:38:02.672Z,97986.23
2019-03-23T13:40:33.424Z,97978.66
2019-03-23T13:43:04.233Z,97974.72
2019-03-23T13:45:42.424Z,97975.59
2019-03-23T13:48:07.575Z,97973.37
2019-03-23T13:50:38.359Z,97964.91
2019-03-23T13:53:09.266Z,97966.34
2019-03-23T13:55:40.011Z,97964.63
2019-03-23T13:58:14.923Z,97960.59
2019-03-23T14:00:45.675Z,97959.25
2019-03-23T14:03:16.452Z,97954.35
2019-03-23T14:05:47.225Z,97955.29
2019-03-23T14:08:18.360Z,97950.42
2019-03-23T14:10:50.221Z,97946.39
2019-03-23T14:13:21.069Z,97943.30
2019-03-23T14:15:51.814Z,97943.39
2019-03-23T14:18:22.810Z,97942.92
2019-03-23T14:20:53.874Z,97935.43
2019-03-23T14:23:24.616Z,97930.91
2019-03-23T14:25:55.398Z,97935.02
2019-03-23T14:28:26.166Z,97932.80
2019-03-23T14:30:56.911Z,97939.60
2019-03-23T14:33:27.701Z,97935.58
2019-03-23T14:35:58.646Z,97929.33
2019-03-23T14:38:30.557Z,97934.70
2019-03-23T14:41:02.605Z,97931.55
2019-03-23T14:43:34.365Z,97928.95
2019-03-23T14:46:05.160Z,97929.89
2019-03-23T14:48:35.962Z,97926.42
2019-03-23T14:51:06.776Z,97927.77
2019-03-23T14:53:37.522Z,97931.79
2019-03-23T14:56:08.454Z,97925.17
2019-03-23T14:58:39.173Z,97926.14
2019-03-23T15:01:09.981Z,97927.95
2019-03-23T15:03:40.730Z,97921.70
2019-03-23T15:06:11.611Z,97923.52
2019-03-23T15:08:42.352Z,97915.96
2019-03-23T15:11:13.223Z,97917.36
2019-03-23T15:13:44.040Z,97915.64
2019-03-23T15:16:14.804Z,97919.26
2019-03-23T15:18:45.589Z,97918.41
2019-03-23T15:21:16.345Z,97911.80
2019-03-23T15:23:47.221Z,97915.88
2019-03-23T15:26:18.157Z,97920.78
2019-03-23T15:28:49.160Z,97915.03
2019-03-23T15:31:19.988Z,97920.45
2019-03-23T15:33:50.760Z,97912.03
2019-03-23T15:36:21.710Z,97912.13
2019-03-23T15:38:54.285Z,97913.52
2019-03-23T15:41:25.080Z,97914.86
2019-03-23T15:43:55.833Z,97913.58
2019-03-23T15:46:26.754Z,97907.84
2019-03-23T15:48:57.521Z,97910.11
2019-03-23T15:51:28.311Z,97916.44
2019-03-23T15:53:59.302Z,97911.13
2019-03-23T15:56:30.137Z,97912.09
2019-03-23T16:01:36.680Z,97911.78
2019-03-23T16:04:07.568Z,97911.78
2019-03-23T16:06:38.437Z,97912.33
2019-03-23T16:09:09.188Z,97912.74
2019-03-23T16:11:40.012Z,97910.99
2019-03-23T16:14:10.897Z,97917.32
2019-03-23T16:16:41.627Z,97911.95
2019-03-23T16:19:13.438Z,97917.78
2019-03-23T16:21:44.164Z,97913.91
2019-03-23T16:24:14.979Z,97912.75
2019-03-23T16:26:46.018Z,97916.30
2019-03-23T16:29:16.942Z,97919.68
2019-03-23T16:31:47.757Z,97914.88
2019-03-23T16:34:19.945Z,97909.59
2019-03-23T16:36:50.713Z,97915.34
2019-03-23T16:39:21.551Z,97909.69
2019-03-23T16:41:52.362Z,97915.66
2019-03-23T16:44:23.511Z,97920.47
2019-03-23T16:46:54.328Z,97912.60
2019-03-23T16:49:25.132Z,97918.02
2019-03-23T16:51:55.909Z,97913.16
2019-03-23T16:54:26.715Z,97916.22
2019-03-23T16:56:57.590Z,97916.91
2019-03-23T16:59:28.448Z,97909.51
2019-03-23T17:02:00.414Z,97913.06
2019-03-23T17:04:31.260Z,97915.34
2019-03-23T17:07:02.207Z,97910.94
2019-03-23T17:09:33.093Z,97914.50
2019-03-23T17:12:04.017Z,97917.55
2019-03-23T17:14:34.813Z,97909.19
2019-03-23T17:17:05.702Z,97914.50
2019-03-23T17:19:36.539Z,97911.02
2019-03-23T17:22:07.413Z,97915.89
2019-03-23T17:24:38.221Z,97915.52
2019-03-23T17:27:09.039Z,97921.20
2019-03-23T17:29:39.923Z,97917.64
2019-03-23T17:32:10.741Z,97919.36
2019-03-23T17:34:42.020Z,97919.91
2019-03-23T17:37:12.853Z,97924.48
2019-03-23T17:39:43.674Z,97925.92
2019-03-23T17:42:14.521Z,97931.14
2019-03-23T17:44:46.204Z,97930.27
2019-03-23T17:47:17.327Z,97935.16
2019-03-23T17:49:48.252Z,97938.69
2019-03-23T17:52:20.153Z,97942.16
2019-03-23T17:54:51.069Z,97944.05
2019-03-23T17:57:23.133Z,97946.73
2019-03-23T17:59:55.208Z,97946.73
2019-03-23T18:02:25.976Z,97952.05
2019-03-23T18:04:56.961Z,97956.06
2019-03-23T18:07:27.778Z,97956.85
2019-03-23T18:09:58.705Z,97960.88
2019-03-23T18:12:29.463Z,97961.72
2019-03-23T18:15:00.425Z,97964.90
2019-03-23T18:17:31.270Z,97963.06
2019-03-23T18:20:02.220Z,97969.39
2019-03-23T18:22:33.930Z,97972.06
2019-03-23T18:25:05.889Z,97977.76
2019-03-23T18:27:36.728Z,97976.42
2019-03-23T18:30:23.009Z,97984.93
2019-03-23T18:32:53.773Z,97982.86
2019-03-23T18:35:24.635Z,97991.78
2019-03-23T18:37:55.538Z,97995.80
2019-03-23T18:40:26.365Z,97990.36
2019-03-23T18:42:57.254Z,97997.94
2019-03-23T18:45:28.040Z,98003.39
2019-03-23T18:47:58.817Z,98008.67
2019-03-23T18:50:29.636Z,98010.88
2019-03-23T18:53:00.487Z,98010.88
2019-03-23T18:55:31.428Z,98014.12
2019-03-23T18:58:02.311Z,98018.69
2019-03-23T19:00:43.324Z,98017.35
2019-03-23T19:03:14.194Z,98018.78
2019-03-23T19:05:45.010Z,98020.67
2019-03-23T19:08:15.917Z,98025.07
2019-03-23T19:10:46.753Z,98025.72
2019-03-23T19:13:18.931Z,98024.77
2019-03-23T19:15:49.668Z,98035.81
2019-03-23T19:18:20.500Z,98036.70
2019-03-23T19:20:51.466Z,98034.94
2019-03-23T19:23:22.348Z,98039.14
2019-03-23T19:25:53.391Z,98044.50
2019-03-23T19:28:24.341Z,98042.20
2019-03-23T19:30:55.280Z,98044.88
2019-03-23T19:33:26.193Z,98048.52
2019-03-23T19:35:56.962Z,98044.00
2019-03-23T19:38:27.815Z,98059.08
2019-03-23T19:40:58.592Z,98057.83
2019-03-23T19:43:29.681Z,98055.52
2019-03-23T19:46:01.521Z,98058.62
2019-03-23T19:48:32.797Z,98060.42
2019-03-23T19:51:03.926Z,98062.18
2019-03-23T19:53:34.718Z,98064.86
2019-03-23T19:56:05.580Z,98059.88
2019-03-23T19:58:36.614Z,98064.77
2019-03-23T20:01:07.402Z,98061.87
2019-03-23T20:03:38.665Z,98065.10
2019-03-23T20:06:09.506Z,98072.73
2019-03-23T20:08:42.289Z,98073.61
2019-03-23T20:11:15.943Z,98077.55
2019-03-23T20:13:46.715Z,98074.31
2019-03-23T20:16:17.617Z,98082.23
2019-03-23T20:18:49.806Z,98077.24
2019-03-23T20:21:20.685Z,98074.45
2019-03-23T20:23:51.471Z,98077.52
2019-03-23T20:26:23.407Z,98074.83
2019-03-23T20:28:54.495Z,98073.91
2019-03-23T20:31:25.264Z,98071.92
2019-03-23T20:33:57.556Z,98078.08
2019-03-23T20:36:28.366Z,98077.20
2019-03-23T20:38:59.567Z,98073.97
2019-03-23T20:41:30.420Z,98073.01
2019-03-23T20:44:09.002Z,98070.73
2019-03-23T20:46:33.715Z,98071.61
2019-03-23T20:49:05.159Z,98071.98
2019-03-23T20:51:36.036Z,98071.06
2019-03-23T20:54:06.836Z,98072.78
2019-03-23T20:56:39.423Z,98069.62
2019-03-23T20:59:10.183Z,98075.00
2019-03-23T21:01:41.114Z,98079.91
2019-03-23T21:04:11.865Z,98074.91
2019-03-23T21:06:42.637Z,98076.16
2019-03-23T21:09:13.445Z,98074.82
2019-03-23T21:11:46.579Z,98066.77
2019-03-23T21:14:20.496Z,98074.27
2019-03-23T21:16:49.891Z,98075.70
2019-03-23T21:19:20.753Z,98075.15
2019-03-23T21:21:51.570Z,98072.37
2019-03-23T21:24:22.327Z,98072.37
2019-03-23T21:26:53.209Z,98068.30
2019-03-23T21:29:24.039Z,98072.37
2019-03-23T21:31:54.813Z,98073.72
2019-03-23T21:34:25.708Z,98076.41
2019-03-23T21:36:56.442Z,98080.75
2019-03-23T21:39:27.297Z,98081.22
2019-03-23T21:41:58.103Z,98081.63
2019-03-23T21:44:31.163Z,98078.95
2019-03-23T21:47:02.770Z,98074.37
2019-03-23T21:49:33.696Z,98076.08
2019-03-23T21:52:04.579Z,98072.05
2019-03-23T21:54:35.384Z,98069.78
2019-03-23T21:57:06.218Z,98072.94
2019-03-23T21:59:37.051Z,98071.13
2019-03-23T22:02:07.832Z,98070.16
2019-03-23T22:04:38.637Z,98074.19
2019-03-23T22:07:09.467Z,98074.59
2019-03-23T22:09:40.253Z,98076.32
2019-03-23T22:12:10.992Z,98073.64
2019-03-23T22:14:42.149Z,98077.28
2019-03-23T22:17:13.912Z,98076.32
2019-03-23T22:19:44.752Z,98074.92
2019-03-23T22:22:15.614Z,98078.63
2019-03-23T22:24:46.379Z,98075.85
2019-03-23T22:27:19.085Z,98083.35
2019-03-23T22:29:49.636Z,98082.48
2019-03-23T22:32:20.415Z,98082.89
2019-03-23T22:34:51.253Z,98073.95
2019-03-23T22:37:22.108Z,98077.90
2019-03-23T22:39:53.050Z,98069.93
2019-03-23T22:42:23.933Z,98067.25
2019-03-23T22:44:54.796Z,98070.80
2019-03-23T22:47:25.616Z,98065.58
2019-03-23T22:49:56.562Z,98069.61
2019-03-23T22:52:27.368Z,98063.77
2019-03-23T22:54:58.210Z,98068.36
2019-03-23T22:57:29.084Z,98066.92
2019-03-23T22:59:59.828Z,98063.45
2019-03-23T23:02:33.357Z,98064.80
2019-03-23T23:05:04.251Z,98068.27
2019-03-23T23:07:35.100Z,98073.08
2019-03-23T23:10:06.601Z,98067.71
2019-03-23T23:12:37.467Z,98064.23
2019-03-23T23:15:08.309Z,98062.11
2019-03-23T23:17:40.153Z,98063.95
2019-03-23T23:20:10.951Z,98061.88
2019-03-23T23:22:41.730Z,98057.47
2019-03-23T23:25:13.500Z,98056.13
2019-03-23T23:27:44.370Z,98051.38
2019-03-23T23:30:15.195Z,98055.81
2019-03-23T23:32:46.030Z,98052.25
2019-03-23T23:35:16.869Z,98048.69
2019-03-23T23:37:47.694Z,98048.69
2019-03-23T23:40:18.573Z,98040.16
2019-03-23T23:42:52.438Z,98041.74
2019-03-23T23:45:23.348Z,98040.72
2019-03-23T23:47:54.189Z,98041.59
2019-03-23T23:50:25.025Z,98035.82
2019-03-23T23:52:55.877Z,98032.75
2019-03-23T23:55:26.639Z,98035.03
2019-03-23T23:57:57.540Z,98034.56
